Time;durP1;ratioP1;P1;durP2;ratioP2;P2;SDS_P1;SDS_P2;PMS_P1;PMS_P2;Temp;Humidity;BMP_temperature;BMP_pressure;BME280_temperature;BME280_humidity;BME280_pressure;Samples;Min_cycle;Max_cycle;Signal;HPM_P1;HPM_P2
2022/01/04 00:00:26;;;;;;;70.82;41.65;;;205.00;2252.80;;;;;;5015530;28;20024;-72
2022/01/04 00:02:51;;;;;;;81.07;45.80;;;205.00;2252.80;;;;;;5015571;28;20388;-72
2022/01/04 00:05:19;;;;;;;63.90;38.25;;;205.00;2252.80;;;;;;5015461;28;20136;-73
2022/01/04 00:07:45;;;;;;;65.22;35.88;;;204.90;2252.80;;;;;;5015252;28;20026;-74
2022/01/04 00:10:11;;;;;;;62.05;35.75;;;205.00;2252.80;;;;;;5015249;28;20030;-73
2022/01/04 00:15:22;;;;;;;90.72;46.88;;;205.20;2252.80;;;;;;5015756;28;20092;-72
2022/01/04 00:17:48;;;;;;;88.03;48.92;;;180.10;2252.80;;;;;;5015331;28;20111;-73
2022/01/04 00:20:14;;;;;;;78.38;45.28;;;179.80;2252.80;;;;;;5015170;28;20464;-73
2022/01/04 00:22:39;;;;;;;71.28;41.83;;;179.70;2252.80;;;;;;5015290;28;20165;-72
2022/01/04 00:25:06;;;;;;;63.70;37.13;;;179.70;2252.80;;;;;;5015379;28;20468;-66
2022/01/04 00:27:32;;;;;;;45.50;27.33;;;;;;;;;;5014007;28;20504;-72
2022/01/04 00:29:58;;;;;;;37.67;23.58;;;;;;;;;;5015226;28;20029;-72
2022/01/04 00:32:24;;;;;;;35.53;22.65;;;;;;;;;;5015037;28;20123;-74
2022/01/04 00:34:50;;;;;;;39.70;24.52;;;154.30;2252.80;;;;;;5014844;28;20499;-73
2022/01/04 00:37:18;;;;;;;45.17;28.38;;;;;;;;;;5014539;28;20038;-72
2022/01/04 00:39:44;;;;;;;42.85;27.38;;;;;;;;;;4997250;28;20368;-72
2022/01/04 00:42:10;;;;;;;47.22;28.55;;;179.40;2252.80;;;;;;5015144;28;20025;-72
2022/01/04 00:44:36;;;;;;;52.05;30.60;;;179.30;2252.80;;;;;;5014835;28;20502;-73
2022/01/04 00:47:02;;;;;;;51.35;29.63;;;154.50;2252.80;;;;;;5015294;28;20026;-73
2022/01/04 00:49:28;;;;;;;44.30;26.55;;;;;;;;;;5014572;28;20033;-73
2022/01/04 00:51:54;;;;;;;43.45;25.83;;;;;;;;;;5014770;28;20029;-82
2022/01/04 00:54:21;;;;;;;45.38;27.60;;;;;;;;;;5014903;28;20097;-76
2022/01/04 00:56:47;;;;;;;33.78;22.48;;;;;;;;;;5015055;28;20030;-83
2022/01/04 00:59:14;;;;;;;31.88;21.40;;;;;;;;;;5015557;28;20116;-84
2022/01/04 01:01:40;;;;;;;36.30;22.15;;;;;;;;;;5015122;28;20029;-76
2022/01/04 01:04:08;;;;;;;35.70;21.83;;;;;;;;;;5014452;28;20536;-77
2022/01/04 01:06:34;;;;;;;32.08;20.70;;;;;;;;;;5014374;28;20026;-66
2022/01/04 01:09:00;;;;;;;28.77;19.35;;;;;;;;;;5014348;28;20032;-76
2022/01/04 01:11:26;;;;;;;31.30;18.60;;;;;;;;;;5014330;28;20022;-66
2022/01/04 01:13:53;;;;;;;30.20;18.75;;;;;;;;;;5014249;28;20110;-76
2022/01/04 01:16:19;;;;;;;30.48;17.80;;;;;;;;;;5013856;28;20467;-72
2022/01/04 01:18:45;;;;;;;33.25;19.75;;;;;;;;;;5014154;28;20030;-67
2022/01/04 01:21:11;;;;;;;34.90;20.42;;;;;;;;;;5014031;28;20385;-68
2022/01/04 01:23:38;;;;;;;37.50;20.73;;;;;;;;;;5014215;28;20037;-76
2022/01/04 01:26:05;;;;;;;45.80;25.13;;;;;;;;;;5014130;28;20056;-74
2022/01/04 01:28:33;;;;;;;27.92;17.08;;;;;;;;;;5013899;28;20041;-75
2022/01/04 01:31:01;;;;;;;24.25;16.58;;;;;;;;;;5014016;28;20021;-75
2022/01/04 01:33:28;;;;;;;26.10;15.88;;;;;;;;;;5013840;28;20428;-73
2022/01/04 01:35:54;;;;;;;23.02;15.40;;;;;;;;;;5013872;28;20486;-75
2022/01/04 01:38:20;;;;;;;24.98;15.60;;;;;;;;;;5013903;28;20495;-71
2022/01/04 01:40:47;;;;;;;25.77;16.20;;;;;;;;;;5013883;28;20018;-77
2022/01/04 01:43:14;;;;;;;28.23;17.10;;;;;;;;;;5013802;28;20049;-75
2022/01/04 01:45:40;;;;;;;27.77;18.45;;;;;;;;;;5013680;28;20033;-73
2022/01/04 01:48:06;;;;;;;27.52;17.63;;;;;;;;;;5013175;28;20022;-76
2022/01/04 01:50:33;;;;;;;27.48;18.00;;;;;;;;;;5013454;28;20259;-73
2022/01/04 01:53:00;;;;;;;25.10;16.02;;;;;;;;;;5013609;28;20097;-77
2022/01/04 01:55:26;;;;;;;26.88;15.75;;;;;;;;;;5013614;28;20503;-76
2022/01/04 01:57:53;;;;;;;23.85;15.57;;;;;;;;;;5013224;28;20048;-77
2022/01/04 02:00:22;;;;;;;25.13;15.63;;;128.70;2252.80;;;;;;5013495;28;20547;-76
2022/01/04 02:02:47;;;;;;;23.13;15.80;;;128.50;2252.80;;;;;;5013607;28;20050;-76
2022/01/04 02:05:14;;;;;;;24.88;15.52;;;;;;;;;;5013475;28;20018;-76
2022/01/04 02:07:43;;;;;;;22.25;14.15;;;128.50;2252.80;;;;;;5013558;28;20607;-76
2022/01/04 02:10:12;;;;;;;22.25;13.65;;;128.50;2252.80;;;;;;5013680;28;20100;-73
2022/01/04 02:12:49;;;;;;;20.30;13.07;;;128.50;2252.80;;;;;;5013302;28;20036;-75
2022/01/04 02:15:20;;;;;;;24.35;15.85;;;128.60;2252.80;;;;;;5013430;28;20084;-73
2022/01/04 02:17:46;;;;;;;31.45;18.30;;;128.70;2252.80;;;;;;5013058;28;20037;-73
2022/01/04 02:20:13;;;;;;;27.17;18.08;;;;;;;;;;5013342;28;20345;-71
2022/01/04 02:22:40;;;;;;;27.08;17.15;;;;;;;;;;5013242;28;20022;-73
2022/01/04 02:25:07;;;;;;;28.48;16.52;;;;;;;;;;5013344;28;20018;-75
2022/01/04 02:27:34;;;;;;;35.95;20.13;;;;;;;;;;5012843;28;20068;-75
2022/01/04 02:30:00;;;;;;;35.47;20.90;;;;;;;;;;5013016;28;20033;-75
2022/01/04 02:32:26;;;;;;;30.55;17.58;;;;;;;;;;5012955;28;20117;-75
2022/01/04 02:34:52;;;;;;;25.60;16.55;;;;;;;;;;5013081;28;20025;-74
2022/01/04 02:37:19;;;;;;;22.48;13.18;;;;;;;;;;5012993;28;20121;-72
2022/01/04 02:39:45;;;;;;;23.80;14.23;;;128.80;2252.80;;;;;;5013071;28;20076;-71
2022/01/04 02:42:11;;;;;;;35.15;18.58;;;128.80;2252.80;;;;;;5013246;28;20030;-73
2022/01/04 02:44:36;;;;;;;22.27;13.38;;;128.80;2252.80;;;;;;5012973;28;20539;-74
2022/01/04 02:47:02;;;;;;;19.10;10.95;;;128.90;2252.80;;;;;;5013117;28;20041;-75
2022/01/04 02:49:31;;;;;;;23.25;15.13;;;128.80;2252.80;;;;;;5012832;28;20026;-75
2022/01/04 02:51:56;;;;;;;24.23;14.30;;;128.90;2252.80;;;;;;5012887;28;20033;-75
2022/01/04 02:54:22;;;;;;;19.08;12.70;;;;;;;;;;5013070;28;20038;-75
2022/01/04 02:56:48;;;;;;;21.05;13.13;;;153.70;2252.80;;;;;;5012866;28;20022;-75
2022/01/04 02:59:15;;;;;;;27.38;15.85;;;;;;;;;;5014017;28;20040;-72
2022/01/04 03:01:41;;;;;;;27.73;15.80;;;;;;;;;;5016555;28;20029;-73
2022/01/04 03:04:08;;;;;;;30.77;15.43;;;;;;;;;;5016603;28;20026;-76
2022/01/04 03:06:34;;;;;;;20.98;13.35;;;;;;;;;;5016932;28;20136;-75
2022/01/04 03:09:00;;;;;;;19.40;12.40;;;;;;;;;;5016836;28;20029;-70
2022/01/04 03:11:27;;;;;;;20.65;12.93;;;;;;;;;;5016894;28;20022;-66
2022/01/04 03:13:53;;;;;;;21.25;11.55;;;;;;;;;;5016423;28;20077;-75
2022/01/04 03:16:19;;;;;;;16.33;11.13;;;;;;;;;;4998722;28;20025;-73
2022/01/04 03:19:05;;;;;;;16.20;9.82;;;;;;;;;;5016346;28;20026;-74
2022/01/04 03:21:31;;;;;;;18.25;10.77;;;;;;;;;;5016543;28;20028;-73
2022/01/04 03:23:58;;;;;;;18.98;11.93;;;;;;;;;;5016578;28;20029;-72
2022/01/04 03:26:24;;;;;;;22.33;12.60;;;153.90;2252.80;;;;;;5016283;28;20049;-72
2022/01/04 03:28:50;;;;;;;22.20;13.68;;;;;;;;;;5016164;28;20443;-75
2022/01/04 03:31:17;;;;;;;24.02;13.45;;;;;;;;;;4998690;28;20377;-75
2022/01/04 03:33:43;;;;;;;23.60;14.48;;;;;;;;;;5012713;28;20027;-77
2022/01/04 03:36:09;;;;;;;23.35;14.23;;;;;;;;;;4996425;28;20110;-72
2022/01/04 03:38:35;;;;;;;20.40;13.13;;;;;;;;;;4996679;28;20393;-78
2022/01/04 03:41:01;;;;;;;17.65;11.52;;;153.90;2252.80;;;;;;4996795;28;20030;-73
2022/01/04 03:43:28;;;;;;;21.27;11.60;;;153.90;2252.80;;;;;;4996549;28;20030;-73
2022/01/04 03:45:54;;;;;;;55.67;26.15;;;153.80;2252.80;;;;;;4996415;28;20034;-73
2022/01/04 03:48:19;;;;;;;17.60;11.27;;;154.10;2252.80;;;;;;4996343;28;20026;-72
2022/01/04 03:50:45;;;;;;;29.67;16.80;;;;;;;;;;4995419;28;20072;-74
2022/01/04 03:53:12;;;;;;;18.15;11.77;;;;;;;;;;4995942;28;20019;-74
2022/01/04 03:55:38;;;;;;;17.58;12.43;;;;;;;;;;4995813;28;20026;-72
2022/01/04 03:58:04;;;;;;;21.05;12.90;;;;;;;;;;4995528;28;20046;-77
2022/01/04 04:00:30;;;;;;;21.17;12.75;;;;;;;;;;4995557;28;20026;-79
2022/01/04 04:02:56;;;;;;;21.13;14.15;;;;;;;;;;4995873;28;20109;-72
2022/01/04 04:05:22;;;;;;;21.08;12.73;;;;;;;;;;4996412;28;20023;-73
2022/01/04 04:07:48;;;;;;;30.65;17.27;;;;;;;;;;4996111;28;20023;-72
2022/01/04 04:10:14;;;;;;;24.75;16.65;;;;;;;;;;4995759;28;20057;-73
2022/01/04 04:12:40;;;;;;;30.23;17.77;;;;;;;;;;4995741;28;20030;-73
2022/01/04 04:15:08;;;;;;;22.15;14.32;;;;;;;;;;4996182;28;20096;-76
2022/01/04 04:17:35;;;;;;;27.02;15.20;;;;;;;;;;4995616;28;20035;-75
2022/01/04 04:20:01;;;;;;;24.35;14.00;;;;;;;;;;4995745;28;20050;-75
2022/01/04 04:22:27;;;;;;;21.00;13.13;;;;;;;;;;4995870;28;20040;-77
2022/01/04 04:24:53;;;;;;;23.45;12.98;;;;;;;;;;4996164;28;20022;-77
2022/01/04 04:27:19;;;;;;;20.63;12.68;;;;;;;;;;4974432;28;20097;-74
2022/01/04 04:29:45;;;;;;;22.65;13.73;;;154.20;2252.80;;;;;;4976071;28;20058;-74
2022/01/04 04:32:11;;;;;;;20.17;12.60;;;154.20;2252.80;;;;;;4976074;28;20063;-77
2022/01/04 04:34:37;;;;;;;22.13;12.98;;;154.20;2252.80;;;;;;4976198;28;20539;-74
2022/01/04 04:37:04;;;;;;;25.70;13.50;;;;;;;;;;4976034;28;20039;-75
2022/01/04 04:39:30;;;;;;;27.20;15.75;;;;;;;;;;4976122;28;20175;-74
2022/01/04 04:41:56;;;;;;;21.00;13.52;;;;;;;;;;4975861;28;20512;-76
2022/01/04 04:44:22;;;;;;;17.92;12.30;;;;;;;;;;4975849;28;20049;-75
2022/01/04 04:46:49;;;;;;;28.13;17.38;;;154.50;2252.80;;;;;;4976023;28;20023;-74
2022/01/04 04:49:15;;;;;;;41.90;22.13;;;154.50;2252.80;;;;;;4975920;28;20034;-75
2022/01/04 04:51:41;;;;;;;21.10;11.90;;;154.50;2252.80;;;;;;4976087;28;20482;-80
2022/01/04 04:54:07;;;;;;;97.35;47.70;;;;;;;;;;4976341;28;20034;-81
2022/01/04 04:56:34;;;;;;;28.27;16.52;;;179.20;2252.80;;;;;;4976231;28;20062;-80
2022/01/04 04:59:00;;;;;;;23.88;15.80;;;179.20;2252.80;;;;;;4976115;28;20048;-82
2022/01/04 05:01:26;;;;;;;28.30;16.70;;;179.20;2252.80;;;;;;4976118;28;20553;-81
2022/01/04 05:03:52;;;;;;;23.60;15.32;;;;;;;;;;4976018;28;20027;-80
2022/01/04 05:06:18;;;;;;;24.13;15.68;;;;;;;;;;4976023;28;20037;-74
2022/01/04 05:08:45;;;;;;;27.58;19.08;;;;;;;;;;4976060;28;20055;-74
2022/01/04 05:11:10;;;;;;;31.88;19.35;;;179.90;2252.80;;;;;;4975739;28;20044;-73
2022/01/04 05:13:36;;;;;;;42.90;23.48;;;179.90;2252.80;;;;;;4975495;28;20030;-76
2022/01/04 05:16:02;;;;;;;45.85;26.40;;;;;;;;;;4975259;28;20088;-70
2022/01/04 05:18:28;;;;;;;33.70;22.00;;;;;;;;;;4975059;28;20042;-73
2022/01/04 05:20:54;;;;;;;29.20;18.38;;;;;;;;;;4975339;28;20162;-73
2022/01/04 05:23:20;;;;;;;25.17;16.05;;;179.80;2252.80;;;;;;4974326;28;20027;-73
2022/01/04 05:25:46;;;;;;;29.27;17.40;;;179.70;2252.80;;;;;;4976356;28;20027;-73
2022/01/04 05:28:11;;;;;;;27.50;17.48;;;179.80;2252.80;;;;;;4994584;28;20144;-73
2022/01/04 05:30:37;;;;;;;26.88;17.20;;;179.90;2252.80;;;;;;4994440;28;20030;-73
2022/01/04 05:33:03;;;;;;;27.08;17.55;;;179.80;2252.80;;;;;;4994427;28;20485;-69
2022/01/04 05:35:29;;;;;;;29.35;17.95;;;180.10;2252.80;;;;;;4994700;28;20046;-74
2022/01/04 05:37:54;;;;;;;25.27;18.85;;;179.90;2252.80;;;;;;4994393;28;20042;-72
2022/01/04 05:40:20;;;;;;;28.30;18.35;;;;;;;;;;4994291;28;20038;-72
2022/01/04 05:42:46;;;;;;;36.00;20.73;;;;;;;;;;4994128;28;20117;-71
2022/01/04 05:45:12;;;;;;;55.92;31.70;;;;;;;;;;4994056;28;20027;-71
2022/01/04 05:47:39;;;;;;;55.20;32.70;;;;;;;;;;4994138;28;20034;-70
2022/01/04 05:50:08;;;;;;;46.38;28.60;;;;;;;;;;4993961;28;20022;-70
2022/01/04 05:52:34;;;;;;;33.67;21.73;;;;;;;;;;4994228;28;20081;-72
2022/01/04 05:55:00;;;;;;;35.42;21.15;;;;;;;;;;4976548;28;20030;-72
2022/01/04 05:57:27;;;;;;;32.83;20.67;;;;;;;;;;4993776;28;20523;-72
2022/01/04 05:59:53;;;;;;;40.03;23.05;;;;;;;;;;4993676;28;20022;-72
2022/01/04 06:02:19;;;;;;;34.38;22.08;;;;;;;;;;4993916;28;20409;-72
2022/01/04 06:04:45;;;;;;;31.70;20.23;;;;;;;;;;4993755;28;20029;-71
2022/01/04 06:07:11;;;;;;;33.20;22.98;;;;;;;;;;4993670;28;20022;-72
2022/01/04 06:09:43;;;;;;;48.58;25.35;;;;;;;;;;4993780;28;20377;-68
2022/01/04 06:14:50;;;;;;;35.15;21.17;;;;;;;;;;4993961;28;19909;-73
2022/01/04 06:17:16;;;;;;;32.50;21.60;;;;;;;;;;4993412;28;20030;-73
2022/01/04 06:19:42;;;;;;;31.05;21.10;;;;;;;;;;4993507;28;20492;-70
2022/01/04 06:22:09;;;;;;;29.90;20.73;;;;;;;;;;4993727;28;20069;-74
2022/01/04 06:24:36;;;;;;;31.73;21.77;;;;;;;;;;4993602;28;20072;-68
2022/01/04 06:27:05;;;;;;;32.30;22.20;;;;;;;;;;4993048;28;20903;-72
2022/01/04 06:29:32;;;;;;;44.60;27.17;;;;;;;;;;4993351;28;20030;-67
2022/01/04 06:31:58;;;;;;;56.72;36.53;;;;;;;;;;4993280;28;20078;-71
2022/01/04 06:34:24;;;;;;;73.75;46.20;;;;;;;;;;4993173;28;20019;-69
2022/01/04 06:36:50;;;;;;;72.43;45.35;;;;;;;;;;4993222;28;20042;-74
2022/01/04 06:39:16;;;;;;;77.28;52.47;;;;;;;;;;4993455;28;20033;-75
2022/01/04 06:41:42;;;;;;;73.00;52.70;;;;;;;;;;4993129;28;20037;-75
2022/01/04 06:44:08;;;;;;;69.03;49.15;;;;;;;;;;4993375;28;20093;-74
2022/01/04 06:46:34;;;;;;;65.97;48.03;;;;;;;;;;4993254;28;20030;-75
2022/01/04 06:49:01;;;;;;;55.47;40.67;;;;;;;;;;4993410;28;20057;-76
2022/01/04 06:51:27;;;;;;;70.00;47.55;;;;;;;;;;4993311;28;20584;-76
2022/01/04 06:53:52;;;;;;;74.72;50.55;;;179.70;2252.80;;;;;;4993202;28;20519;-72
2022/01/04 06:56:18;;;;;;;71.65;47.55;;;179.70;2252.80;;;;;;4993083;28;20038;-71
2022/01/04 06:58:44;;;;;;;69.60;44.40;;;179.30;2252.80;;;;;;4993120;28;20118;-73
2022/01/04 07:01:09;;;;;;;66.55;42.47;;;154.50;2252.80;;;;;;4993136;28;20384;-78
2022/01/04 07:03:35;;;;;;;65.43;42.03;;;179.20;2252.80;;;;;;4993218;28;20058;-75
2022/01/04 07:06:01;;;;;;;59.72;40.72;;;;;;;;;;4993176;28;20026;-76
2022/01/04 07:08:27;;;;;;;72.13;46.55;;;;;;;;;;4993346;28;20026;-77
2022/01/04 07:10:53;;;;;;;75.90;52.70;;;;;;;;;;4993411;28;20034;-76
2022/01/04 07:13:19;;;;;;;92.60;57.80;;;;;;;;;;4993122;28;20022;-74
2022/01/04 07:15:46;;;;;;;90.60;58.83;;;;;;;;;;4993074;28;20026;-72
2022/01/04 07:18:12;;;;;;;85.95;54.97;;;;;;;;;;4992944;28;20069;-72
2022/01/04 07:20:38;;;;;;;78.28;50.35;;;;;;;;;;4992988;28;20022;-72
2022/01/04 07:23:04;;;;;;;84.97;49.65;;;;;;;;;;4992922;28;20027;-73
2022/01/04 07:25:30;;;;;;;84.15;49.90;;;154.40;2252.80;;;;;;4993011;28;20062;-72
2022/01/04 07:27:55;;;;;;;79.97;51.20;;;179.20;2252.80;;;;;;4992603;28;20070;-72
2022/01/04 07:30:21;;;;;;;72.65;48.55;;;179.50;2252.80;;;;;;4991615;28;20113;-72
2022/01/04 07:32:47;;;;;;;65.80;42.65;;;179.40;2252.80;;;;;;4992811;28;20124;-72
2022/01/04 07:35:13;;;;;;;67.82;41.75;;;;;;;;;;4992793;28;20030;-72
2022/01/04 07:37:39;;;;;;;70.07;45.20;;;179.80;2252.80;;;;;;4992783;28;20125;-74
2022/01/04 07:40:07;;;;;;;75.63;47.33;;;;;;;;;;4992629;28;20109;-73
2022/01/04 07:42:33;;;;;;;82.70;52.05;;;205.00;2252.80;;;;;;4993227;28;20040;-74
2022/01/04 07:44:58;;;;;;;76.95;50.75;;;204.80;2252.80;;;;;;4992779;28;20030;-73
2022/01/04 07:47:24;;;;;;;85.10;56.78;;;204.90;2252.80;;;;;;4995211;28;20053;-74
2022/01/04 07:49:50;;;;;;;97.80;62.22;;;204.80;2252.80;;;;;;4996422;28;20493;-73
2022/01/04 07:52:16;;;;;;;86.78;58.13;;;180.10;2252.80;;;;;;4996459;28;20030;-72
2022/01/04 07:54:43;;;;;;;91.28;53.17;;;180.10;2252.80;;;;;;4996179;28;20061;-72
2022/01/04 07:57:09;;;;;;;81.20;51.65;;;204.90;2252.80;;;;;;4979025;28;20042;-84
2022/01/04 07:59:35;;;;;;;79.32;53.35;;;;;;;;;;4997518;28;20022;-82
2022/01/04 08:02:01;;;;;;;74.30;52.05;;;230.90;2252.80;;;;;;4996904;28;20045;-82
2022/01/04 08:04:27;;;;;;;93.13;58.13;;;256.00;2252.80;;;;;;4996263;28;20022;-74
2022/01/04 08:06:53;;;;;;;87.70;54.92;;;;;;;;;;4996075;28;20037;-75
2022/01/04 08:09:19;;;;;;;84.05;58.70;;;;;;;;;;4995906;28;20018;-70
2022/01/04 08:11:45;;;;;;;109.18;72.18;;;;;;;;;;4996098;28;20022;-74
2022/01/04 08:14:11;;;;;;;123.03;83.40;;;;;;;;;;4995584;28;20050;-72
2022/01/04 08:16:37;;;;;;;193.40;135.43;;;;;;;;;;4995517;28;20069;-77
2022/01/04 08:19:03;;;;;;;153.20;101.25;;;;;;;;;;4995262;28;20484;-72
2022/01/04 08:21:29;;;;;;;179.25;127.28;;;;;;;;;;4995523;28;20499;-80
2022/01/04 08:23:55;;;;;;;206.43;141.02;;;;;;;;;;4995438;28;20548;-72
2022/01/04 08:26:21;;;;;;;189.55;127.32;;;;;;;;;;4995390;28;20493;-70
2022/01/04 08:28:47;;;;;;;161.75;114.15;;;;;;;;;;4995482;28;20441;-79
2022/01/04 08:31:13;;;;;;;172.98;122.00;;;256.40;2252.80;;;;;;4995652;28;20026;-74
2022/01/04 08:33:39;;;;;;;164.55;112.43;;;256.50;2252.80;;;;;;4995438;28;20030;-73
2022/01/04 08:36:07;;;;;;;167.05;113.88;;;;;;;;;;4995579;28;20038;-75
2022/01/04 08:38:33;;;;;;;131.23;91.07;;;256.80;2252.80;;;;;;4995305;28;20046;-72
2022/01/04 08:40:59;;;;;;;125.95;85.32;;;256.70;2252.80;;;;;;4995311;28;20109;-72
2022/01/04 08:43:26;;;;;;;133.20;90.95;;;;;;;;;;4995336;28;20103;-72
2022/01/04 08:45:52;;;;;;;147.68;105.90;;;;;;;;;;4995179;28;20018;-73
2022/01/04 08:48:18;;;;;;;122.18;82.63;;;;;;;;;;4994736;28;20393;-78
2022/01/04 08:50:45;;;;;;;116.13;81.22;;;;;;;;;;4994809;28;20023;-78
2022/01/04 08:53:12;;;;;;;128.65;87.88;;;;;;;;;;4994768;28;20058;-81
2022/01/04 08:55:39;;;;;;;121.63;88.32;;;282.30;2252.80;;;;;;4994938;28;20092;-73
2022/01/04 08:58:05;;;;;;;131.23;90.35;;;;;;;;;;4994172;28;20038;-76
2022/01/04 09:00:31;;;;;;;133.43;96.90;;;307.20;2278.40;;;;;;4994620;28;20050;-78
2022/01/04 09:02:57;;;;;;;130.13;92.88;;;;;;;;;;4994229;28;20456;-81
2022/01/04 09:05:23;;;;;;;132.15;91.40;;;307.90;2150.40;;;;;;4994585;28;20097;-76
2022/01/04 09:07:49;;;;;;;214.10;151.20;;;;;;;;;;4994529;28;20019;-80
2022/01/04 09:10:16;;;;;;;124.15;92.10;;;;;;;;;;4995042;28;20037;-82
2022/01/04 09:12:52;;;;;;;123.63;88.55;;;;;;;;;;4995086;28;20018;-78
2022/01/04 09:20:39;;;;;;;129.55;91.97;;;;;;;;;;4994169;28;20085;-73
2022/01/04 09:23:05;;;;;;;155.73;108.03;;;;;;;;;;4993747;28;20100;-72
2022/01/04 09:25:31;;;;;;;161.32;112.50;;;;;;;;;;4993792;28;20026;-72
2022/01/04 09:27:57;;;;;;;198.27;132.77;;;410.40;1587.20;;;;;;4993279;28;20104;-75
2022/01/04 09:30:23;;;;;;;255.18;167.50;;;;;;;;;;4993847;28;20026;-75
2022/01/04 09:32:49;;;;;;;179.90;135.57;;;435.50;1536.00;;;;;;4994221;28;20030;-73
2022/01/04 09:35:15;;;;;;;190.80;138.23;;;435.40;1792.00;;;;;;4993827;28;20057;-75
2022/01/04 09:37:41;;;;;;;229.02;161.93;;;461.10;1459.20;;;;;;4993460;28;20445;-78
2022/01/04 09:40:08;;;;;;;171.27;129.35;;;461.50;1408.00;;;;;;4976193;28;20101;-73
2022/01/04 09:42:35;;;;;;;193.57;141.90;;;;;;;;;;4993783;28;20105;-73
2022/01/04 09:45:01;;;;;;;204.38;149.38;;;486.70;1356.80;;;;;;4993749;28;20011;-73
2022/01/04 09:47:29;;;;;;;183.45;144.35;;;486.80;1356.80;;;;;;4993480;28;20023;-73
2022/01/04 09:49:55;;;;;;;174.70;131.52;;;461.40;1408.00;;;;;;4993551;28;20029;-71
2022/01/04 09:52:21;;;;;;;176.90;135.90;;;;;;;;;;4993416;28;20026;-69
2022/01/04 09:54:50;;;;;;;218.77;178.00;;;;;;;;;;4993641;28;20026;-73
2022/01/04 09:57:16;;;;;;;173.68;135.65;;;;;;;;;;4993008;28;20493;-72
2022/01/04 09:59:42;;;;;;;189.32;143.40;;;;;;;;;;4993379;28;20018;-75
2022/01/04 10:02:20;;;;;;;235.05;174.27;;;563.20;1203.20;;;;;;4993205;28;20101;-76
2022/01/04 10:04:46;;;;;;;216.13;155.30;;;538.50;1228.80;;;;;;4993456;28;20072;-69
2022/01/04 10:07:12;;;;;;;261.83;211.98;;;;;;;;;;4993179;28;20030;-70
2022/01/04 10:09:42;;;;;;;246.50;176.30;;;;;;;;;;4992961;28;20042;-73
2022/01/04 10:12:10;;;;;;;230.80;167.73;;;;;;;;;;4992773;28;20431;-79
2022/01/04 10:14:40;;;;;;;240.15;166.63;;;;;;;;;;4992946;28;20484;-78
2022/01/04 10:17:07;;;;;;;229.38;163.90;;;;;;;;;;4993753;28;20468;-81
2022/01/04 10:19:34;;;;;;;252.23;182.32;;;;;;;;;;4992800;28;20085;-74
2022/01/04 10:22:22;;;;;;;254.45;182.40;;;;;;;;;;4993062;28;20030;-75
2022/01/04 10:24:50;;;;;;;266.70;187.35;;;;;;;;;;4992872;28;20019;-75
2022/01/04 10:27:22;;;;;;;272.55;191.90;;;;;;;;;;4992511;28;20046;-71
2022/01/04 10:29:48;;;;;;;282.30;203.40;;;;;;;;;;4993413;28;20058;-69
2022/01/04 10:32:15;;;;;;;279.92;212.15;;;;;;;;;;4992926;28;20022;-75
2022/01/04 10:34:48;;;;;;;263.52;189.70;;;;;;;;;;4992695;28;20026;-72
2022/01/04 10:37:34;;;;;;;269.55;197.65;;;;;;;;;;4992949;28;20043;-78
2022/01/04 10:40:08;;;;;;;281.65;199.75;;;;;;;;;;4975886;28;20121;-76
2022/01/04 10:42:34;;;;;;;276.33;202.13;;;;;;;;;;4993297;28;20026;-76
2022/01/04 10:45:00;;;;;;;293.30;211.63;;;;;;;;;;4993540;28;20065;-76
2022/01/04 10:47:29;;;;;;;311.08;218.60;;;;;;;;;;4993142;28;20022;-72
2022/01/04 10:49:56;;;;;;;302.13;223.50;;;;;;;;;;4993123;28;20041;-77
2022/01/04 10:52:31;;;;;;;347.23;242.75;;;436.10;1459.20;;;;;;4993105;28;20031;-77
2022/01/04 10:55:15;;;;;;;333.75;240.88;;;460.80;1689.60;;;;;;4975755;28;20434;-73
2022/01/04 10:57:41;;;;;;;340.33;243.77;;;;;;;;;;4993338;28;20046;-77
2022/01/04 11:00:22;;;;;;;319.02;239.30;;;;;;;;;;4993121;28;20097;-74
2022/01/04 11:02:48;;;;;;;307.88;227.80;;;;;;;;;;4992948;28;20029;-77
2022/01/04 11:05:21;;;;;;;331.85;248.63;;;;;;;;;;4992973;28;20110;-77
2022/01/04 11:08:04;;;;;;;351.77;262.75;;;;;;;;;;4992873;28;20031;-77
2022/01/04 11:10:35;;;;;;;385.13;285.55;;;;;;;;;;4993343;28;20022;-78
2022/01/04 11:13:02;;;;;;;392.90;287.45;;;;;;;;;;4993070;28;20477;-77
2022/01/04 11:15:29;;;;;;;433.30;341.27;;;;;;;;;;4992813;28;20070;-77
2022/01/04 11:17:56;;;;;;;413.45;314.17;;;;;;;;;;4993126;28;20121;-77
2022/01/04 11:20:23;;;;;;;423.23;336.85;;;;;;;;;;4993023;28;20026;-77
2022/01/04 11:22:49;;;;;;;430.83;340.80;;;;;;;;;;4996688;28;20050;-79
2022/01/04 11:25:17;;;;;;;458.77;367.35;;;;;;;;;;4996791;28;20073;-77
2022/01/04 11:27:44;;;;;;;442.88;352.73;;;;;;;;;;4996743;28;20520;-76
2022/01/04 11:30:15;;;;;;;437.45;337.25;;;;;;;;;;4996447;28;20134;-75
2022/01/04 11:32:42;;;;;;;316.67;249.52;;;;;;;;;;4996608;28;20033;-74
2022/01/04 11:35:08;;;;;;;207.80;157.15;;;;;;;;;;4996607;28;20477;-76
2022/01/04 11:37:35;;;;;;;263.60;192.57;;;;;;;;;;4996243;28;20049;-75
2022/01/04 11:40:21;;;;;;;174.45;129.02;;;;;;;;;;4996788;28;20097;-75
2022/01/04 11:42:47;;;;;;;132.00;92.32;;;;;;;;;;4996207;28;20026;-75
2022/01/04 11:45:12;;;;;;;180.40;127.68;;;486.40;1356.80;;;;;;4996137;28;20073;-76
2022/01/04 11:47:45;;;;;;;169.68;113.75;;;486.50;1382.40;;;;;;4996038;28;20050;-76
2022/01/04 11:50:18;;;;;;;67.15;46.25;;;486.60;1356.80;;;;;;4996205;28;20377;-75
2022/01/04 11:52:55;;;;;;;27.42;18.27;;;486.60;1331.20;;;;;;4996283;28;20026;-76
2022/01/04 11:55:29;;;;;;;31.60;20.33;;;486.50;1305.60;;;;;;4995857;28;20026;-76
2022/01/04 11:57:56;;;;;;;29.17;19.27;;;;;;;;;;4995939;28;20481;-76
2022/01/04 12:00:26;;;;;;;23.95;17.17;;;;;;;;;;4996019;28;20034;-76
2022/01/04 12:03:08;;;;;;;35.43;21.67;;;;;;;;;;4995939;28;20026;-76
2022/01/04 12:05:35;;;;;;;28.25;17.27;;;;;;;;;;4995142;28;20030;-75
2022/01/04 12:08:14;;;;;;;18.48;14.30;;;;;;;;;;4993896;28;20038;-77
2022/01/04 12:10:40;;;;;;;21.27;14.27;;;;;;;;;;4991115;28;20023;-76
2022/01/04 12:13:11;;;;;;;25.48;16.02;;;;;;;;;;4996234;28;20031;-76
2022/01/04 12:15:37;;;;;;;34.65;22.02;;;;;;;;;;4995928;28;20030;-72
2022/01/04 12:18:02;;;;;;;27.45;17.60;;;486.80;1280.00;;;;;;4995440;28;20038;-77
2022/01/04 12:20:46;;;;;;;24.77;17.25;;;486.80;1280.00;;;;;;4995522;28;20481;-76
2022/01/04 12:23:30;;;;;;;22.15;15.13;;;486.70;1280.00;;;;;;4995953;28;20376;-73
2022/01/04 12:26:11;;;;;;;29.70;19.20;;;486.80;1280.00;;;;;;4995540;28;20030;-76
2022/01/04 12:28:39;;;;;;;24.33;17.05;;;486.60;1280.00;;;;;;4995556;28;20042;-76
2022/01/04 12:31:17;;;;;;;37.22;22.27;;;486.50;1305.60;;;;;;4995268;28;20026;-76
2022/01/04 12:33:42;;;;;;;36.72;25.05;;;486.50;1305.60;;;;;;4995129;28;20029;-76
2022/01/04 12:36:10;;;;;;;47.38;33.60;;;486.50;1305.60;;;;;;4995332;28;20030;-76
2022/01/04 12:38:36;;;;;;;41.83;27.52;;;486.50;1331.20;;;;;;4995275;28;20488;-77
2022/01/04 12:41:04;;;;;;;43.80;25.77;;;486.40;1331.20;;;;;;4995268;28;20389;-76
2022/01/04 12:43:31;;;;;;;47.65;27.48;;;461.70;1331.20;;;;;;4995293;28;20026;-76
2022/01/04 12:45:59;;;;;;;44.70;26.88;;;461.70;1331.20;;;;;;4994933;28;20028;-77
2022/01/04 12:48:47;;;;;;;44.58;29.95;;;461.60;1331.20;;;;;;4995034;28;20113;-77
2022/01/04 12:51:32;;;;;;;41.75;29.50;;;461.60;1331.20;;;;;;4995123;28;20342;-76
2022/01/04 12:53:59;;;;;;;44.72;27.50;;;;;;;;;;4994945;28;20037;-77
2022/01/04 12:56:26;;;;;;;37.85;25.45;;;;;;;;;;4994741;28;20022;-76
2022/01/04 12:58:52;;;;;;;59.55;33.97;;;;;;;;;;4995348;28;20043;-76
2022/01/04 13:01:26;;;;;;;41.60;28.40;;;;;;;;;;4994223;28;20485;-76
2022/01/04 13:03:52;;;;;;;46.03;29.48;;;;;;;;;;4994614;28;20030;-75
2022/01/04 13:06:22;;;;;;;39.40;25.90;;;;;;;;;;4995159;28;20331;-76
2022/01/04 13:08:55;;;;;;;38.88;24.85;;;;;;;;;;4994605;28;20026;-77
2022/01/04 13:11:21;;;;;;;24.10;17.75;;;;;;;;;;4994764;28;20488;-77
2022/01/04 13:14:01;;;;;;;33.72;21.90;;;;;;;;;;4994908;28;20370;-78
2022/01/04 13:16:30;;;;;;;28.63;22.05;;;;;;;;;;4994549;28;20027;-78
2022/01/04 13:19:15;;;;;;;18.02;14.85;;;;;;;;;;4994791;28;20022;-79
2022/01/04 13:21:42;;;;;;;28.15;18.10;;;;;;;;;;4994815;28;20065;-78
2022/01/04 13:24:08;;;;;;;38.55;23.70;;;;;;;;;;4994497;28;20046;-78
2022/01/04 13:26:35;;;;;;;33.88;20.77;;;;;;;;;;4994029;28;20046;-72
2022/01/04 13:29:01;;;;;;;27.65;16.70;;;;;;;;;;4994540;28;20464;-73
2022/01/04 13:31:28;;;;;;;37.40;24.65;;;;;;;;;;4993808;28;20112;-71